Flight Track Log - Related Links

Times and Time Zones

All times are in EST time to prevent confusion due to time zone crossing. See the OPT438 flight status page for this flight to view local times or setup timezone preferences in your user account.

Time Position Orientation Groundspeed Altitude Reporting Facility
EST Latitude Longitude Course Direction KTS MPH feet Rate Location/Type
Fri 02:29:30 PM 32.7600 -80.0986 200° South 224 258 8,200  Level Jacksonville Center
Fri 02:30:30 PM 32.6936 -80.1278 200° South 235 270 11,300 2,800 Climbing Jacksonville Center
Fri 02:31:30 PM 32.6342 -80.1792 216° Southwest 248 285 13,800 2,500 Climbing Jacksonville Center
Fri 02:32:30 PM 32.5644 -80.2331 213° Southwest 280 322 16,300 2,500 Climbing Jacksonville Center
Fri 02:33:30 PM 32.4947 -80.2867 213° Southwest 296 341 18,800 2,450 Climbing Jacksonville Center
Fri 02:34:30 PM 32.4269 -80.3403 214° Southwest 301 346 21,200 2,200 Climbing Jacksonville Center
Fri 02:35:30 PM 32.3631 -80.3889 213° Southwest 295 339 23,200 1,600 Climbing Jacksonville Center
Fri 02:36:30 PM 32.3017 -80.4494 220° Southwest 295 339 24,400 1,100 Climbing Jacksonville Center
Fri 02:37:30 PM 32.2444 -80.5197 226° Southwest 295 339 25,400 1,050 Climbing Jacksonville Center
Fri 02:38:30 PM 32.1853 -80.5925 226° Southwest 301 346 26,500 1,150 Climbing Jacksonville Center
Fri 02:39:30 PM 32.1181 -80.6775 227° Southwest 314 361 27,700 1,100 Climbing Jacksonville Center
Fri 02:40:30 PM 32.0606 -80.7428 224° Southwest 319 367 28,700 1,100 Climbing Jacksonville Center
Fri 02:41:30 PM 31.9931 -80.8250 226° Southwest 324 373 29,900 1,100 Climbing Jacksonville Center
Fri 02:42:30 PM 31.9358 -80.8925 225° Southwest 329 379 30,900 1,100 Climbing Jacksonville Center
Fri 02:43:30 PM 31.8661 -80.9747 225° Southwest 324 373 32,100 1,050 Climbing Jacksonville Center
Fri 02:44:30 PM 31.8044 -81.0469 225° Southwest 324 373 33,000 950 Climbing Jacksonville Center
Fri 02:45:30 PM 31.7489 -81.1117 225° Southwest 324 373 34,000 500 Climbing Jacksonville Center
Fri 02:46:30 PM 31.6769 -81.1958 225° Southwest 324 373 34,000  Level Jacksonville Center
Fri 02:48:30 PM 31.5453 -81.3494 225° Southwest 354 407 34,000  Level Jacksonville Center
Fri 02:49:30 PM 31.4733 -81.4358 226° Southwest 343 395 34,000  Level Jacksonville Center
Fri 02:50:30 PM 31.4053 -81.5150 225° Southwest 337 388 34,000  Level Jacksonville Center
Fri 02:51:30 PM 31.3414 -81.5911 226° Southwest 337 388 34,000  Level Jacksonville Center
Fri 02:52:30 PM 31.2733 -81.6675 224° Southwest 335 386 34,000  Level Jacksonville Center
Fri 02:53:30 PM 31.2072 -81.7461 225° Southwest 340 391 34,000  Level Jacksonville Center
Fri 02:54:30 PM 31.1453 -81.8172 225° Southwest 346 398 34,000  Level Jacksonville Center
Fri 02:55:30 PM 31.0750 -81.9031 226° Southwest 351 404 34,000  Level Jacksonville Center
Fri 02:56:30 PM 31.0022 -81.9764 221° Southwest 351 404 34,000 -200 Level Jacksonville Center
Fri 02:57:30 PM 30.9086 -82.0136 199° South 351 404 33,600 -750 Descending Jacksonville Center
Fri 02:58:30 PM 30.8086 -82.0411 193° South 361 415 32,500 -1,050 Descending Jacksonville Center
Fri 02:59:30 PM 30.7106 -82.0661 192° South 366 421 31,500 -1,000 Descending Jacksonville Center
Fri 03:00:30 PM 30.6106 -82.0936 193° South 366 421 30,500 -750 Descending Jacksonville Center
Fri 03:01:30 PM 30.5042 -82.1161 190° South 366 421 30,000 -350 Descending Jacksonville Center
Fri 03:02:30 PM 30.4000 -82.1436 193° South 379 436 29,800 -600 Descending Jacksonville Center
Fri 03:03:30 PM 30.2917 -82.1708 192° South 393 452 28,800 -1,050 Descending Jacksonville Center
Fri 03:04:30 PM 30.1875 -82.2006 194° South 393 452 27,700 -1,050 Descending Jacksonville Center
Fri 03:05:30 PM 30.0789 -82.2278 192° South 387 445 26,700 -950 Descending Jacksonville Center
Fri 03:06:30 PM 29.9831 -82.2572 195° South 392 451 25,800 -950 Descending Jacksonville Center
Fri 03:07:30 PM 29.8747 -82.2867 193° South 392 451 24,800 -900 Descending Jacksonville Center
Fri 03:08:30 PM 29.7558 -82.3111 190° South 392 451 24,000 -400 Descending Jacksonville Center
Fri 03:09:30 PM 29.6619 -82.3381 194° South 392 451 24,000  Level Jacksonville Center
Fri 03:10:30 PM 29.5533 -82.3556 188° South 392 451 24,000 -350 Level Jacksonville Center
Fri 03:11:30 PM 29.4406 -82.3417 174° South 392 451 23,300 -1,000 Descending Jacksonville Center
Fri 03:12:30 PM 29.3300 -82.3422 180° South 398 458 22,000 -1,200 Descending Jacksonville Center
Fri 03:13:30 PM 29.2217 -82.3547 186° South 398 458 20,900 -1,100 Descending Jacksonville Center
Fri 03:14:30 PM 29.1172 -82.3650 185° South 398 458 19,800 -1,150 Descending Jacksonville Center
Fri 03:15:30 PM 29.0086 -82.3536 175° South 388 447 18,600 -1,150 Descending Jacksonville Center
Fri 03:16:30 PM 28.8936 -82.3164 164° South 383 441 17,500 -1,050 Descending Jacksonville Center
Fri 03:17:30 PM 28.8058 -82.2861 163° South 368 423 16,500 -1,364 Descending Jacksonville Center
Fri 03:19:48 PM 28.6167 -82.2500 170° South 251 289 13,000 -1,156 Descending Tampa TRACON
Fri 03:20:42 PM 28.5500 -82.2500 180° South 247 284 12,800 -667 Descending Tampa TRACON
Fri 03:21:36 PM 28.4833 -82.2500 180° South 268 308 11,800 -1,368 Descending Tampa TRACON
Fri 03:22:36 PM 28.4167 -82.2500 180° South 264 304 10,200 -1,800 Descending Tampa TRACON
Fri 03:23:36 PM 28.3500 -82.2833 204° Southwest 257 296 8,200 -2,050 Descending Tampa TRACON
Fri 03:24:36 PM 28.2833 -82.3167 204° Southwest 269 310 6,100 -1,600 Descending Tampa TRACON
Fri 03:25:36 PM 28.2667 -82.3833 254° West 209 241 5,000 -1,000 Descending Tampa TRACON
Fri 03:26:42 PM 28.2500 -82.4500 254° West 205 236 4,000 -1,000 Descending Tampa TRACON
Fri 03:27:36 PM 28.2167 -82.4833 221° Southwest 197 227 3,000 -500 Descending Tampa TRACON
Fri 03:28:42 PM 28.1667 -82.5167 210° Southwest 168 193 3,000 -143 Level Tampa TRACON
Fri 03:29:42 PM 28.1167 -82.5167 180° South 181 208 2,700 -368 Descending Tampa TRACON
Fri 03:30:36 PM 28.0833 -82.5167 180° South 166 191 2,300 158 Descending Tampa TRACON
Fri 03:31:36 PM 28.1000 -82.4500 74° East 249 287 3,000 350 Climbing Tampa TRACON
Fri 03:32:36 PM 28.1500 -82.4167 30° Northeast 236 272 3,000  Level Tampa TRACON
Fri 03:33:36 PM 28.2000 -82.4333 344° North 209 241 3,000  Level Tampa TRACON
Fri 03:34:42 PM 28.2000 -82.4833 270° West 156 180 3,000  Level Tampa TRACON
Fri 03:35:42 PM 28.1667 -82.5167 221° Southwest 168 193 3,000 -150 Level Tampa TRACON
Fri 03:36:42 PM 28.1333 -82.5167 180° South 181 208 2,700 -550 Descending Tampa TRACON
Fri 03:37:42 PM 28.0833 -82.5333 196° South 169 194 1,900 -850 Descending Tampa TRACON
Fri 03:38:42 PM 28.0333 -82.5333 180° South 152 175 1,000 -750 Descending Tampa TRACON
Fri 03:39:42 PM 28.0000 -82.5333 180° South 114 131 400 -600 Descending Tampa TRACON

Login

Don't have an account? Register now (free) for customized features, flight alerts, and more!